createdAt,value
2023-05-23T00:02:20.845Z,100558.47
2023-05-23T00:07:22.607Z,100547.56
2023-05-23T00:12:24.348Z,100537.75
2023-05-23T00:17:27.579Z,100534.34
2023-05-23T00:22:29.287Z,100538.09
2023-05-23T00:27:30.998Z,100554.69
2023-05-23T00:32:35.523Z,100580.19
2023-05-23T00:37:38.110Z,100588.53
2023-05-23T00:42:39.867Z,100580.63
2023-05-23T00:47:42.973Z,100586.28
2023-05-23T00:52:45.743Z,100585.69
2023-05-23T00:57:47.609Z,100593.94
2023-05-23T01:02:53.995Z,100601.38
2023-05-23T01:07:56.031Z,100585.00
2023-05-23T01:13:06.596Z,100585.25
2023-05-23T01:18:10.528Z,100591.59
2023-05-23T01:24:00.229Z,100582.41
2023-05-23T01:29:10.190Z,100585.25
2023-05-23T01:34:12.646Z,100580.03
2023-05-23T01:39:14.412Z,100579.06
2023-05-23T01:44:18.625Z,100579.06
2023-05-23T01:49:22.735Z,100573.06
2023-05-23T01:54:24.445Z,100567.94
2023-05-23T01:59:27.526Z,100574.97
2023-05-23T02:04:31.790Z,100569.91
2023-05-23T02:09:33.947Z,100566.59
2023-05-23T02:14:37.519Z,100576.91
2023-05-23T02:19:39.381Z,100577.34
2023-05-23T02:24:41.092Z,100581.06
2023-05-23T02:29:44.188Z,100587.44
2023-05-23T02:34:46.820Z,100579.94
2023-05-23T02:39:48.596Z,100584.09
2023-05-23T02:44:51.704Z,100570.50
2023-05-23T02:49:53.860Z,100583.22
2023-05-23T02:54:55.726Z,100588.41
2023-05-23T02:59:58.914Z,100588.00
2023-05-23T03:05:00.758Z,100595.81
2023-05-23T03:10:02.610Z,100607.13
2023-05-23T03:15:08.001Z,100608.81
2023-05-23T03:20:12.377Z,100610.50
2023-05-23T03:25:15.379Z,100606.06
2023-05-23T03:30:19.119Z,100611.56
2023-05-23T03:35:21.198Z,100612.91
2023-05-23T03:40:23.071Z,100624.66
2023-05-23T03:45:26.722Z,100628.25
2023-05-23T03:50:28.773Z,100629.91
2023-05-23T03:55:32.623Z,100632.63
2023-05-23T04:00:36.043Z,100630.81
2023-05-23T04:05:40.565Z,100633.25
2023-05-23T04:10:43.832Z,100628.06
2023-05-23T04:15:48.207Z,100641.25
2023-05-23T04:20:50.237Z,100638.06
2023-05-23T04:25:52.579Z,100650.50
2023-05-23T04:31:03.221Z,100651.44
2023-05-23T04:36:09.350Z,100641.03
2023-05-23T04:41:16.221Z,100648.38
2023-05-23T04:46:41.882Z,100647.84
2023-05-23T04:51:51.161Z,100660.28
2023-05-23T04:56:56.740Z,100658.34
2023-05-23T05:02:01.865Z,100662.38
2023-05-23T05:07:04.638Z,100661.28
2023-05-23T05:12:06.849Z,100664.16
2023-05-23T05:17:10.249Z,100664.03
2023-05-23T05:22:26.631Z,100659.28
2023-05-23T05:27:28.736Z,100661.91
2023-05-23T05:32:33.712Z,100662.41
2023-05-23T05:37:36.616Z,100663.09
2023-05-23T05:42:38.601Z,100662.81
2023-05-23T05:47:41.872Z,100664.31
2023-05-23T05:52:43.801Z,100663.91
2023-05-23T05:57:46.873Z,100657.44
2023-05-23T06:02:51.955Z,100658.28
2023-05-23T06:08:07.367Z,100667.31
2023-05-23T06:13:09.106Z,100666.84
2023-05-23T06:18:13.575Z,100657.81
2023-05-23T06:23:15.477Z,100662.13
2023-05-23T06:28:17.265Z,100663.63
2023-05-23T06:33:22.084Z,100665.06
2023-05-23T06:38:26.755Z,100672.31
2023-05-23T06:43:28.427Z,100662.94
2023-05-23T06:48:45.782Z,100665.97
2023-05-23T06:53:47.484Z,100667.69
2023-05-23T06:58:49.646Z,100664.31
2023-05-23T07:03:53.055Z,100672.19
2023-05-23T07:08:54.883Z,100675.53
2023-05-23T07:13:58.786Z,100673.44
2023-05-23T07:19:13.213Z,100663.00
2023-05-23T07:24:23.897Z,100666.69
2023-05-23T07:29:28.798Z,100663.00
2023-05-23T07:34:32.188Z,100663.31
2023-05-23T07:39:36.274Z,100661.53
2023-05-23T07:44:39.107Z,100665.22
2023-05-23T07:49:42.634Z,100671.53
2023-05-23T07:54:44.416Z,100663.81
2023-05-23T07:59:47.428Z,100678.84
2023-05-23T08:04:51.004Z,100674.13
2023-05-23T08:09:53.437Z,100677.16
2023-05-23T08:15:14.846Z,100678.94
2023-05-23T08:20:22.496Z,100683.88
2023-05-23T08:25:25.191Z,100693.06
2023-05-23T08:30:27.485Z,100697.06
2023-05-23T08:35:34.995Z,100704.09
2023-05-23T08:40:37.384Z,100696.72
2023-05-23T08:45:46.080Z,100708.41
2023-05-23T08:50:51.058Z,100716.50
2023-05-23T08:55:56.442Z,100717.25
2023-05-23T09:01:01.963Z,100726.91
2023-05-23T09:06:06.747Z,100736.59
2023-05-23T09:11:12.940Z,100735.84
2023-05-23T09:16:16.359Z,100745.28
2023-05-23T09:21:24.498Z,100753.16
2023-05-23T09:26:33.576Z,100760.84
2023-05-23T09:31:36.469Z,100767.41
2023-05-23T09:36:40.985Z,100772.38
2023-05-23T09:41:48.541Z,100774.72
2023-05-23T09:46:52.717Z,100789.78
2023-05-23T09:52:00.179Z,100790.13
2023-05-23T09:57:02.282Z,100793.16
2023-05-23T10:02:04.290Z,100805.88
2023-05-23T10:07:14.903Z,100814.00
2023-05-23T10:12:44.754Z,100825.09
2023-05-23T10:18:03.986Z,100839.25
2023-05-23T10:23:07.075Z,100836.53
2023-05-23T10:28:08.878Z,100840.53
2023-05-23T10:33:11.630Z,100846.91
2023-05-23T10:38:21.781Z,100852.78
2023-05-23T10:43:26.588Z,100858.28
2023-05-23T10:48:37.495Z,100867.50
2023-05-23T10:53:41.729Z,100881.09
2023-05-23T10:58:43.451Z,100893.31
2023-05-23T11:03:54.727Z,100906.69
2023-05-23T11:09:07.894Z,100905.16
2023-05-23T11:14:09.971Z,100910.28
2023-05-23T11:19:27.724Z,100917.78
2023-05-23T11:24:50.947Z,100936.94
2023-05-23T11:29:57.930Z,100933.75
2023-05-23T11:35:00.436Z,100944.25
2023-05-23T11:40:27.988Z,100954.91
2023-05-23T11:45:30.312Z,100957.97
2023-05-23T11:50:32.043Z,100967.09
2023-05-23T11:55:35.066Z,100977.25
2023-05-23T12:00:43.472Z,100977.34
2023-05-23T12:05:45.577Z,100986.09
2023-05-23T12:10:52.362Z,100990.56
2023-05-23T12:15:54.961Z,101002.66
2023-05-23T12:20:59.828Z,101008.91
2023-05-23T12:26:04.583Z,101010.13
2023-05-23T12:31:10.818Z,101022.56
2023-05-23T12:36:12.682Z,101025.25
2023-05-23T12:41:19.554Z,101018.97
2023-05-23T12:46:21.920Z,101020.25
2023-05-23T12:51:23.666Z,101026.97
2023-05-23T12:56:26.719Z,101028.38
2023-05-23T13:01:28.482Z,101032.28
2023-05-23T13:06:30.268Z,101031.78
2023-05-23T13:11:33.293Z,101028.34
2023-05-23T13:16:36.250Z,101038.00
2023-05-23T13:21:37.999Z,101033.44
2023-05-23T13:26:41.009Z,101022.53
2023-05-23T13:31:42.746Z,101035.09
2023-05-23T13:36:44.485Z,101048.69
2023-05-23T13:41:47.511Z,101049.97
2023-05-23T13:46:49.305Z,101056.28
2023-05-23T13:51:51.102Z,101061.59
2023-05-23T13:56:54.176Z,101062.31
2023-05-23T14:01:56.050Z,101082.63
2023-05-23T14:06:57.848Z,101082.97
2023-05-23T14:12:01.351Z,101084.66
2023-05-23T14:17:03.308Z,101086.25
2023-05-23T14:22:05.617Z,101084.41
2023-05-23T14:27:10.834Z,101081.88
2023-05-23T14:32:13.282Z,101091.56
2023-05-23T14:37:15.147Z,101090.03
2023-05-23T14:42:18.175Z,101088.50
2023-05-23T14:47:19.862Z,101101.28
2023-05-23T14:52:21.656Z,101105.41
2023-05-23T14:57:24.836Z,101105.75
2023-05-23T15:02:26.834Z,101106.28
2023-05-23T15:07:28.715Z,101121.31
2023-05-23T15:12:31.843Z,101128.75
2023-05-23T15:17:33.673Z,101123.03
2023-05-23T15:22:39.696Z,101132.78
2023-05-23T15:27:44.857Z,101119.59
2023-05-23T15:32:47.613Z,101125.88
2023-05-23T15:37:49.410Z,101125.03
2023-05-23T15:42:52.456Z,101137.16
2023-05-23T15:47:54.232Z,101129.47
2023-05-23T15:52:56.029Z,101136.84
2023-05-23T15:57:59.244Z,101137.81
2023-05-23T16:03:01.033Z,101150.81
2023-05-23T16:08:02.792Z,101155.16
2023-05-23T16:13:05.884Z,101140.88
2023-05-23T16:18:07.576Z,101148.81
2023-05-23T16:23:09.292Z,101150.66
2023-05-23T16:28:12.334Z,101154.28
2023-05-23T16:33:14.109Z,101151.47
2023-05-23T16:38:15.875Z,101145.97
2023-05-23T16:43:18.990Z,101154.13
2023-05-23T16:48:21.500Z,101148.94
2023-05-23T16:53:23.333Z,101154.06
2023-05-23T16:58:26.345Z,101151.91
2023-05-23T17:03:29.272Z,101158.00
2023-05-23T17:08:31.070Z,101156.84
2023-05-23T17:13:34.705Z,101173.16
2023-05-23T17:18:36.559Z,101173.34
2023-05-23T17:23:38.304Z,101169.28
2023-05-23T17:28:42.002Z,101171.97
2023-05-23T17:33:44.341Z,101169.97
2023-05-23T17:38:46.050Z,101173.16
2023-05-23T17:43:49.811Z,101176.47
2023-05-23T17:48:51.519Z,101185.94
2023-05-23T17:53:53.763Z,101202.81
2023-05-23T17:58:57.107Z,101200.38
2023-05-23T18:03:58.833Z,101200.28
2023-05-23T18:09:00.559Z,101208.56
2023-05-23T18:14:03.835Z,101220.78
2023-05-23T18:19:05.805Z,101232.81
2023-05-23T18:24:08.914Z,101233.13
2023-05-23T18:29:12.015Z,101238.41
2023-05-23T18:34:13.730Z,101236.97
2023-05-23T18:39:15.574Z,101243.34
2023-05-23T18:44:20.964Z,101247.47
2023-05-23T18:49:23.011Z,101248.34
2023-05-23T18:54:24.707Z,101258.03
2023-05-23T18:59:27.781Z,101266.91
2023-05-23T19:04:29.511Z,101274.94
2023-05-23T19:09:31.248Z,101277.81
2023-05-23T19:14:34.378Z,101295.66
2023-05-23T19:19:37.470Z,101302.00
2023-05-23T19:24:39.324Z,101316.19
2023-05-23T19:29:42.478Z,101323.25
2023-05-23T19:34:44.366Z,101334.59
2023-05-23T19:39:46.232Z,101330.41
2023-05-23T19:44:50.081Z,101342.78
2023-05-23T19:49:51.775Z,101338.41
2023-05-23T19:54:53.501Z,101346.34
2023-05-23T19:59:56.712Z,101343.72
2023-05-23T20:04:58.408Z,101358.59
2023-05-23T20:10:00.184Z,101346.31
2023-05-23T20:15:03.572Z,101363.00
2023-05-23T20:20:06.646Z,101355.06
2023-05-23T20:25:08.806Z,101360.34
2023-05-23T20:30:13.215Z,101368.31
2023-05-23T20:35:14.962Z,101379.72
2023-05-23T20:40:17.021Z,101375.25
2023-05-23T20:45:20.173Z,101384.91
2023-05-23T20:50:22.564Z,101379.59
2023-05-23T20:55:24.802Z,101382.19
2023-05-23T21:00:28.348Z,101390.16
2023-05-23T21:05:30.174Z,101383.09
2023-05-23T21:10:32.037Z,101391.03
2023-05-23T21:15:35.188Z,101394.47
2023-05-23T21:20:36.892Z,101388.38
2023-05-23T21:25:38.729Z,101398.91
2023-05-23T21:30:42.138Z,101392.81
2023-05-23T21:35:45.184Z,101394.59
2023-05-23T21:40:46.977Z,101399.88
2023-05-23T21:45:50.197Z,101407.72
2023-05-23T21:50:51.900Z,101401.63
2023-05-23T21:55:53.678Z,101407.75
2023-05-23T22:00:56.857Z,101401.63
2023-05-23T22:05:58.562Z,101395.47
2023-05-23T22:11:00.898Z,101402.50
2023-05-23T22:16:05.322Z,101406.00
2023-05-23T22:21:07.104Z,101404.25
2023-05-23T22:26:08.791Z,101407.75
2023-05-23T22:31:13.448Z,101409.50
2023-05-23T22:36:15.176Z,101401.59
2023-05-23T22:41:17.108Z,101398.06
2023-05-23T22:46:20.203Z,101401.63
2023-05-23T22:51:22.237Z,101399.81
2023-05-23T22:56:24.053Z,101397.22
2023-05-23T23:01:27.108Z,101399.81
2023-05-23T23:06:29.246Z,101400.75
2023-05-23T23:11:31.045Z,101403.34
2023-05-23T23:16:34.560Z,101419.09
2023-05-23T23:21:37.568Z,101411.22
2023-05-23T23:26:39.329Z,101419.94
2023-05-23T23:31:42.434Z,101412.94
2023-05-23T23:36:44.197Z,101420.81
2023-05-23T23:41:45.906Z,101419.09
2023-05-23T23:46:49.168Z,101423.44
2023-05-23T23:51:50.998Z,101424.28
2023-05-23T23:56:52.700Z,101427.81
